createdAt,value
2019-02-23T00:02:31.511Z,52.70
2019-02-23T00:07:37.503Z,63.67
2019-02-23T00:12:44.522Z,59.57
2019-02-23T00:17:51.364Z,59.50
2019-02-23T00:22:58.288Z,58.27
2019-02-23T00:28:25.509Z,51.30
2019-02-23T00:33:32.155Z,56.20
2019-02-23T00:38:39.075Z,56.67
2019-02-23T00:43:46.116Z,52.30
2019-02-23T00:48:52.989Z,54.47
2019-02-23T00:53:59.947Z,47.03
2019-02-23T00:59:06.822Z,45.33
2019-02-23T01:04:13.727Z,45.63
2019-02-23T01:09:20.638Z,44.10
2019-02-23T01:14:26.630Z,48.33
2019-02-23T01:19:32.632Z,51.50
2019-02-23T01:24:39.567Z,51.13
2019-02-23T01:29:46.442Z,51.37
2019-02-23T01:34:53.363Z,47.03
2019-02-23T01:40:01.298Z,51.53
2019-02-23T01:45:30.019Z,46.20
2019-02-23T01:50:36.956Z,38.93
2019-02-23T01:55:43.842Z,48.57
2019-02-23T02:00:50.780Z,40.73
2019-02-23T02:05:57.746Z,42.23
2019-02-23T02:11:04.992Z,37.87
2019-02-23T02:16:11.554Z,35.00
2019-02-23T02:21:18.132Z,34.13
2019-02-23T02:26:24.136Z,40.53
2019-02-23T02:31:30.825Z,38.03
2019-02-23T02:36:57.990Z,39.90
2019-02-23T02:42:04.578Z,40.23
2019-02-23T02:47:11.395Z,35.90
2019-02-23T02:52:18.340Z,38.90
2019-02-23T02:57:24.334Z,40.60
2019-02-23T03:02:32.580Z,42.40
2019-02-23T03:07:38.680Z,43.00
2019-02-23T03:12:57.135Z,45.80
2019-02-23T03:18:15.786Z,47.03
2019-02-23T03:23:22.601Z,40.43
2019-02-23T03:28:28.541Z,35.53
2019-02-23T03:33:34.573Z,31.00
2019-02-23T03:38:41.542Z,11.03
2019-02-23T03:43:48.123Z,37.03
2019-02-23T03:49:13.396Z,25.10
2019-02-23T03:54:20.343Z,19.53
2019-02-23T03:59:26.295Z,24.13
2019-02-23T04:04:33.313Z,30.17
2019-02-23T04:09:40.081Z,32.80
2019-02-23T04:14:59.181Z,27.33
2019-02-23T04:20:08.283Z,27.73
2019-02-23T04:25:15.023Z,27.27
2019-02-23T04:30:21.733Z,31.33
2019-02-23T04:35:27.870Z,26.07
2019-02-23T04:40:33.899Z,25.77
2019-02-23T04:45:40.116Z,26.07
2019-02-23T04:50:58.866Z,28.03
2019-02-23T04:56:05.906Z,29.57
2019-02-23T05:01:33.247Z,24.37
2019-02-23T05:06:40.297Z,27.30
2019-02-23T05:11:47.187Z,33.07
2019-02-23T05:16:54.076Z,26.67
2019-02-23T05:22:00.905Z,28.07
2019-02-23T05:27:07.973Z,29.07
2019-02-23T05:32:14.924Z,27.07
2019-02-23T05:37:22.023Z,26.87
2019-02-23T05:42:28.012Z,23.33
2019-02-23T05:47:34.013Z,27.23
2019-02-23T05:52:41.065Z,31.87
2019-02-23T05:57:47.082Z,25.80
2019-02-23T06:02:53.072Z,26.53
2019-02-23T06:08:00.111Z,30.23
2019-02-23T06:13:07.431Z,24.30
2019-02-23T06:18:14.575Z,27.43
2019-02-23T06:23:21.692Z,29.53
2019-02-23T06:28:27.927Z,35.57
2019-02-23T06:33:33.888Z,27.30
2019-02-23T06:38:40.877Z,24.30
2019-02-23T06:44:06.144Z,24.90
2019-02-23T06:49:12.838Z,29.63
2019-02-23T06:54:19.728Z,27.60
2019-02-23T06:59:25.864Z,27.87
2019-02-23T07:04:32.090Z,19.13
2019-02-23T07:09:38.141Z,28.27
2019-02-23T07:15:05.776Z,19.07
2019-02-23T07:20:13.108Z,17.23
2019-02-23T07:25:20.060Z,19.20
2019-02-23T07:30:26.058Z,18.57
2019-02-23T07:35:32.661Z,23.03
2019-02-23T07:40:39.567Z,18.00
2019-02-23T07:45:46.472Z,14.87
2019-02-23T07:50:53.359Z,22.30
2019-02-23T07:56:00.042Z,22.37
2019-02-23T08:01:06.763Z,17.40
2019-02-23T08:06:13.297Z,15.17
2019-02-23T08:11:20.610Z,18.87
2019-02-23T08:16:26.605Z,14.07
2019-02-23T08:21:32.611Z,15.87
2019-02-23T08:26:39.524Z,15.57
2019-02-23T08:31:46.724Z,23.13
2019-02-23T08:36:54.030Z,18.73
2019-02-23T08:42:01.149Z,19.37
2019-02-23T08:47:07.719Z,21.03
2019-02-23T08:52:14.973Z,16.53
2019-02-23T08:57:21.852Z,20.33
2019-02-23T09:02:27.895Z,15.97
2019-02-23T09:07:33.909Z,19.80
2019-02-23T09:12:40.084Z,15.77
2019-02-23T09:17:46.950Z,14.17
2019-02-23T09:23:00.144Z,17.10
2019-02-23T09:28:03.690Z,15.93
2019-02-23T09:33:10.627Z,16.77
2019-02-23T09:38:17.495Z,14.93
2019-02-23T09:43:36.271Z,13.47
2019-02-23T09:48:42.823Z,20.00
2019-02-23T09:53:49.401Z,15.17
2019-02-23T09:58:56.338Z,13.80
2019-02-23T10:04:03.003Z,14.77
2019-02-23T10:09:10.374Z,19.17
2019-02-23T10:14:17.628Z,16.63
2019-02-23T10:19:23.589Z,14.60
2019-02-23T10:24:31.681Z,14.97
2019-02-23T10:29:37.632Z,15.43
2019-02-23T10:34:44.580Z,18.30
2019-02-23T10:39:51.792Z,13.23
2019-02-23T10:44:58.557Z,13.67
2019-02-23T10:50:08.933Z,11.33
2019-02-23T10:55:16.552Z,16.80
2019-02-23T11:00:23.227Z,15.03
2019-02-23T11:05:30.717Z,15.60
2019-02-23T11:10:37.813Z,14.43
2019-02-23T11:15:45.002Z,12.00
2019-02-23T11:21:03.972Z,13.87
2019-02-23T11:26:11.733Z,17.97
2019-02-23T11:31:18.430Z,12.50
2019-02-23T11:36:24.538Z,11.57
2019-02-23T11:41:31.401Z,10.53
2019-02-23T11:46:38.934Z,10.37
2019-02-23T11:51:45.910Z,13.50
2019-02-23T11:56:52.947Z,10.13
2019-02-23T12:01:59.832Z,8.97
2019-02-23T12:07:07.264Z,10.90
2019-02-23T12:12:14.150Z,11.30
2019-02-23T12:17:21.084Z,9.63
2019-02-23T12:22:27.093Z,10.83
2019-02-23T12:27:33.554Z,6.87
2019-02-23T12:32:40.752Z,7.30
2019-02-23T12:37:48.872Z,8.00
2019-02-23T12:42:55.852Z,6.70
2019-02-23T12:48:03.240Z,8.40
2019-02-23T12:53:30.996Z,9.20
2019-02-23T12:58:38.283Z,6.90
2019-02-23T13:04:03.654Z,9.17
2019-02-23T13:09:24.183Z,6.93
2019-02-23T13:14:53.909Z,7.30
2019-02-23T13:20:40.819Z,7.80
2019-02-23T13:26:03.485Z,10.37
2019-02-23T13:31:51.878Z,9.47
2019-02-23T13:37:23.544Z,9.23
2019-02-23T13:42:56.904Z,18.30
2019-02-23T13:48:50.801Z,7.40
2019-02-23T13:54:20.640Z,4.67
2019-02-23T13:59:36.996Z,6.60
2019-02-23T14:05:28.234Z,6.57
2019-02-23T14:11:05.720Z,12.30
2019-02-23T14:16:28.430Z,20.80
2019-02-23T14:22:13.858Z,18.53
2019-02-23T14:28:02.756Z,5.07
2019-02-23T14:33:31.132Z,8.30
2019-02-23T14:39:17.875Z,7.87
2019-02-23T14:44:58.881Z,6.83
2019-02-23T14:50:59.303Z,9.17
2019-02-23T14:56:50.882Z,7.97
2019-02-23T15:02:20.078Z,5.23
2019-02-23T15:08:00.661Z,5.97
2019-02-23T15:13:59.549Z,6.33
2019-02-23T15:19:43.734Z,5.67
2019-02-23T15:25:13.449Z,9.40
2019-02-23T15:30:36.316Z,10.10
2019-02-23T15:36:21.562Z,8.37
2019-02-23T15:42:14.590Z,10.23
2019-02-23T15:47:48.825Z,8.70
2019-02-23T15:52:55.550Z,7.50
2019-02-23T15:58:02.405Z,8.17
2019-02-23T16:03:09.051Z,8.37
2019-02-23T16:08:16.220Z,10.27
2019-02-23T16:13:23.046Z,9.03
2019-02-23T16:18:28.983Z,12.83
2019-02-23T16:23:35.738Z,7.70
2019-02-23T16:28:42.752Z,8.37
2019-02-23T16:33:49.806Z,11.43
2019-02-23T16:38:56.766Z,7.57
2019-02-23T16:44:03.462Z,7.30
2019-02-23T16:49:30.848Z,13.30
2019-02-23T16:54:37.702Z,11.23
2019-02-23T17:00:06.125Z,12.80
2019-02-23T17:05:14.833Z,11.50
2019-02-23T17:10:21.839Z,12.43
2019-02-23T17:15:28.015Z,12.37
2019-02-23T17:20:56.023Z,17.80
2019-02-23T17:26:04.462Z,14.83
2019-02-23T17:31:10.976Z,16.10
2019-02-23T17:36:18.045Z,15.43
2019-02-23T17:41:23.976Z,11.07
2019-02-23T17:46:43.283Z,14.67
2019-02-23T17:51:50.401Z,16.53
2019-02-23T17:56:57.237Z,14.07
2019-02-23T18:02:04.162Z,12.73
2019-02-23T18:07:10.636Z,23.50
2019-02-23T18:12:37.496Z,14.97
2019-02-23T18:17:43.401Z,17.63
2019-02-23T18:22:49.409Z,19.23
2019-02-23T18:27:56.570Z,16.37
2019-02-23T18:33:03.409Z,16.53
2019-02-23T18:38:10.322Z,19.50
2019-02-23T18:43:17.142Z,17.23
2019-02-23T18:48:23.101Z,18.37
2019-02-23T18:53:29.056Z,20.47
2019-02-23T18:58:35.545Z,18.10
2019-02-23T19:03:43.631Z,17.90
2019-02-23T19:08:50.176Z,15.87
2019-02-23T19:13:56.670Z,22.10
2019-02-23T19:19:04.238Z,18.23
2019-02-23T19:24:10.839Z,29.60
2019-02-23T19:29:17.289Z,24.07
2019-02-23T19:34:23.404Z,24.53
2019-02-23T19:39:29.331Z,33.27
2019-02-23T19:44:35.332Z,28.07
2019-02-23T19:49:41.362Z,26.77
2019-02-23T19:54:48.108Z,23.03
2019-02-23T20:00:15.884Z,30.23
2019-02-23T20:05:22.759Z,30.97
2019-02-23T20:10:28.786Z,32.03
2019-02-23T20:15:34.728Z,29.27
2019-02-23T20:20:40.625Z,35.97
2019-02-23T20:25:47.512Z,31.20
2019-02-23T20:30:54.401Z,34.17
2019-02-23T20:36:01.059Z,32.67
2019-02-23T20:41:07.944Z,31.57
2019-02-23T20:46:26.884Z,34.93
2019-02-23T20:51:32.963Z,31.40
2019-02-23T20:57:04.035Z,33.43
2019-02-23T21:02:08.022Z,34.93
2019-02-23T21:07:14.871Z,34.07
2019-02-23T21:12:22.065Z,30.17
2019-02-23T21:17:28.053Z,29.50
2019-02-23T21:22:34.008Z,28.63
2019-02-23T21:27:40.615Z,37.03
2019-02-23T21:32:47.128Z,34.10
2019-02-23T21:37:53.600Z,35.37
2019-02-23T21:43:00.203Z,27.57
2019-02-23T21:48:06.624Z,34.90
2019-02-23T21:53:13.077Z,28.03
2019-02-23T21:58:19.643Z,37.93
2019-02-23T22:03:25.571Z,33.37
2019-02-23T22:08:31.538Z,37.10
2019-02-23T22:13:37.478Z,35.90
2019-02-23T22:19:05.039Z,38.07
2019-02-23T22:24:11.617Z,30.00
2019-02-23T22:29:18.044Z,37.47
2019-02-23T22:34:23.991Z,32.03
2019-02-23T22:39:29.900Z,39.53
2019-02-23T22:44:35.871Z,40.20
2019-02-23T22:49:41.682Z,36.43
2019-02-23T22:54:48.585Z,39.97
2019-02-23T22:59:55.472Z,33.50
2019-02-23T23:05:02.235Z,40.63
2019-02-23T23:10:11.665Z,37.17
2019-02-23T23:15:18.821Z,37.60
2019-02-23T23:20:24.679Z,42.10
2019-02-23T23:25:32.596Z,36.40
2019-02-23T23:30:38.960Z,38.67
2019-02-23T23:35:45.232Z,34.40
2019-02-23T23:40:52.023Z,33.80
2019-02-23T23:45:59.052Z,36.73
2019-02-23T23:51:05.807Z,40.57
2019-02-23T23:56:13.504Z,25.77
